Terminal Aerodrome Forecast
Issued by NWS Twin Cities, MN

Home | Current Version | Previous Version | Text Only | Print | Product List | Glossary On
Versions: 1 2 3 4 5 6 7 8 9 10 11 12 13 14 15 16 17
000
FTUS43 KMPX 300520
TAFEAU
TAF
KEAU 300520Z 3006/3106 34006KT P6SM SCT035
     FM300900 VRB04KT P6SM SCT100
     FM302000 18006KT P6SM BKN080=

USA.gov is the U.S. government's official web portal to all federal, state and local government web resources and services.